Latest Weather Observations for Douglas River

IDD60801

Issued at 7:31 am CST Tuesday 23 December 2014 (issued every 30 minutes, with the page automatically refreshed every 10 minutes)

About weather observations | Map of weather stations | Latest weather observations for NT | Other Formats
Station Details ID: 014901 Name: DOUGLAS RIVER Lat: -13.83 Lon: 131.19 Height: 42.8 m
Data from the previous 72 hours. | See also: Recent months at Douglas River
Date/Time
CST
Temp
°C
App
Temp
°C
Dew
Point
Rel
Hum
%
Delta-T
°C
Wind Press
QNH
hPa
Press
MSL
hPa
Rain
since 9 am
mm
Dir
 
Spd
km/h
Gust
km/h
Spd
kts
Gust
kts
23/07:30am 25.6 31.4 24.6 94 0.7 ENE 2 7 1 4 1009.4 1009.1 23.2
23/07:00am 25.2 31.3 24.5 96 0.5 CALM 0 7 0 4 1009.3 1009.0 23.2
23/06:30am 24.9 31.0 24.5 98 0.3 CALM 0 0 0 0 1009.0 1008.7 23.2
23/06:00am 25.0 31.2 24.6 98 0.3 CALM 0 7 0 4 1008.7 1008.4 23.2
23/05:30am 24.9 30.9 24.3 96 0.4 CALM 0 0 0 0 1008.4 1008.1 23.2
23/05:00am 25.0 31.1 24.4 96 0.4 CALM 0 0 0 0 1008.2 1007.9 23.2
23/04:30am 25.0 31.2 24.6 98 0.3 CALM 0 0 0 0 1008.2 1007.9 23.2
23/04:00am 24.9 31.0 24.5 98 0.3 CALM 0 0 0 0 1008.0 1007.7 23.2
23/03:30am 25.0 31.2 24.6 98 0.3 CALM 0 0 0 0 1007.9 1007.6 23.2
23/03:00am 24.9 31.0 24.5 98 0.3 CALM 0 0 0 0 1008.1 1007.8 23.2
23/02:30am 25.0 31.2 24.6 98 0.3 CALM 0 0 0 0 1008.2 1007.9 23.0
23/02:00am 25.1 30.9 24.5 96 0.4 WSW 2 6 1 3 1008.3 1008.0 23.0
23/01:30am 25.2 31.0 24.6 96 0.4 WSW 2 6 1 3 1008.0 1007.7 23.0
23/01:00am 25.3 31.6 24.7 96 0.4 CALM 0 0 0 0 1008.1 1007.8 23.0
23/12:30am 25.5 30.6 24.6 95 0.6 ENE 6 9 3 5 1008.4 1008.1 23.0
23/12:00am 25.6 30.5 24.4 93 0.8 ESE 6 9 3 5 1008.5 1008.2 23.0
 
Date/Time
CST
Temp
°C
App
Temp
°C
Dew
Point
Rel
Hum
%
Delta-T
°C
Wind Press
QNH
hPa
Press
MSL
hPa
Rain
since 9 am
mm
Dir
 
Spd
km/h
Gust
km/h
Spd
kts
Gust
kts
22/11:30pm 25.5 31.7 24.6 95 0.6 CALM 0 0 0 0 1008.6 1008.3 23.0
22/11:00pm 25.5 30.4 24.3 93 0.8 SE 6 9 3 5 1008.7 1008.4 23.0
22/10:30pm 25.1 29.4 24.2 95 0.6 SSE 9 11 5 6 1008.9 1008.6 23.0
22/10:00pm 25.2 28.7 24.2 94 0.7 E 13 17 7 9 1008.6 1008.3 23.0
22/09:30pm 25.2 29.9 24.3 95 0.6 SSW 7 13 4 7 1008.0 1007.7 23.0
22/09:00pm 25.4 31.3 24.7 96 0.5 WSW 2 9 1 5 1007.8 1007.5 23.0
22/08:30pm 25.1 30.6 24.1 94 0.7 ENE 2 6 1 3 1007.6 1007.3 23.0
22/08:00pm 24.5 29.6 23.3 93 0.8 NW 2 9 1 5 1007.1 1006.8 23.0
22/07:30pm 24.2 28.1 23.0 93 0.8 NNW 7 11 4 6 1006.9 1006.6 22.6
22/07:00pm 24.3 28.0 23.3 94 0.7 SW 9 13 5 7 1006.5 1006.2 21.8
22/06:30pm 24.0 25.7 22.4 91 1.1 W 17 24 9 13 1006.4 1006.1 20.6
22/06:00pm 24.7 27.0 23.5 93 0.8 WNW 17 26 9 14 1006.5 1006.2 8.0
22/05:30pm 26.6 26.8 23.4 82 2.2 ESE 28 35 15 19 1005.5 1005.1 0.0
22/05:00pm 29.2 31.4 24.2 74 3.5 - 20 32 11 17 1005.0 1004.7 0.0
22/04:30pm 34.1 36.5 24.3 56 6.9 W 19 30 10 16 1004.1 1003.7 0.0
22/04:00pm 35.6 39.9 23.6 50 8.4 NW 7 13 4 7 1004.2 1003.8 0.0
22/03:30pm 35.5 40.2 24.0 51 8.1 NNW 6 9 3 5 1004.9 1004.5 0.0
22/03:00pm 35.2 38.8 23.8 51 8.0 W 11 19 6 10 1005.4 1005.0 0.0
22/02:30pm 34.5 39.2 24.0 54 7.4 N 6 9 3 5 1006.1 1005.7 0.0
22/02:00pm 35.1 40.2 24.0 52 7.8 NNW 4 9 2 5 1006.4 1006.1 0.0
22/01:30pm 34.9 39.5 24.1 53 7.6 NNW 7 13 4 7 1007.0 1006.7 0.0
22/01:00pm 34.4 39.3 24.3 55 7.1 N 6 11 3 6 1007.3 1007.0 0.0
22/12:30pm 34.4 39.7 25.0 58 6.7 NNE 6 9 3 5 1007.8 1007.5 0.0
22/12:00pm 33.8 39.4 25.5 62 5.9 SE 6 11 3 6 1008.0 1007.7 0.0
22/11:30am 33.1 38.9 25.8 65 5.2 NW 6 9 3 5 1008.6 1008.3 0.0
22/11:00am 32.2 37.6 25.5 67 4.8 NE 7 15 4 8 1008.8 1008.5 0.0
22/10:30am 31.4 36.7 25.2 69 4.4 NE 7 13 4 7 1009.0 1008.7 0.0
22/10:00am 30.7 36.0 25.0 71 4.0 ENE 6 9 3 5 1009.3 1009.0 0.0
22/09:30am 29.6 34.8 24.8 75 3.4 NE 6 11 3 6 1009.5 1009.2 0.0
22/09:00am 29.1 34.3 24.8 77 3.0 NE 6 11 3 6 1009.5 1009.2 0.0
22/08:30am 28.1 32.9 24.2 79 2.7 ENE 6 9 3 5 1009.1 1008.8 0.0
22/08:00am 26.6 31.4 24.1 86 1.7 ESE 6 7 3 4 1008.8 1008.5 0.0
22/07:30am 25.5 31.3 23.9 91 1.1 CALM 0 0 0 0 1008.7 1008.4 0.0
22/07:00am 25.1 30.9 23.9 93 0.8 CALM 0 0 0 0 1008.5 1008.2 0.0
22/06:30am 24.8 30.4 23.6 93 0.8 CALM 0 0 0 0 1008.2 1007.9 0.0
22/06:00am 24.9 30.3 23.3 91 1.1 CALM 0 0 0 0 1007.7 1007.4 0.0
22/05:30am 25.1 29.8 23.3 90 1.2 ENE 4 7 2 4 1007.7 1007.4 0.0
22/05:00am 25.1 29.8 22.7 86 1.6 S 2 7 1 4 1007.6 1007.3 0.0
22/04:30am 25.2 28.6 22.7 86 1.7 SSE 9 13 5 7 1007.3 1007.0 0.0
22/04:00am 25.7 27.8 22.4 82 2.2 SE 15 20 8 11 1007.4 1007.1 0.0
22/03:30am 26.2 26.9 22.3 79 2.6 ESE 22 32 12 17 1008.0 1007.7 0.0
22/03:05am 26.9 26.7 22.8 78 2.8 SE 28 37 15 20 1007.6 - 0.0
22/03:00am 27.3 29.0 23.4 79 2.7 SE 20 37 11 20 1007.8 1007.5 0.0
22/02:59am 27.5 29.4 23.7 80 2.6 SE 20 37 11 20 1007.9 1007.6 0.0
22/02:30am 27.4 33.2 26.0 92 1.0 SSE 7 9 4 5 1007.7 1007.4 0.0
22/02:00am 27.3 34.6 26.3 94 0.7 CALM 0 0 0 0 1007.6 1007.3 0.0
22/01:30am 27.3 34.2 25.7 91 1.1 CALM 0 0 0 0 1007.8 1007.5 0.0
22/01:00am 27.3 34.2 25.7 91 1.1 CALM 0 0 0 0 1007.8 1007.5 0.0
22/12:30am 27.4 34.3 25.7 90 1.2 CALM 0 0 0 0 1008.2 1007.9 0.0
22/12:00am 27.7 34.7 25.9 90 1.3 CALM 0 0 0 0 1008.3 1008.0 0.0
 
Date/Time
CST
Temp
°C
App
Temp
°C
Dew
Point
Rel
Hum
%
Delta-T
°C
Wind Press
QNH
hPa
Press
MSL
hPa
Rain
since 9 am
mm
Dir
 
Spd
km/h
Gust
km/h
Spd
kts
Gust
kts
21/11:30pm 27.7 33.7 26.0 90 1.2 SSW 6 7 3 4 1008.4 1008.1 0.0
21/11:00pm 28.5 33.8 25.2 82 2.3 NW 7 11 4 6 1008.2 1007.9 0.0
21/10:30pm 28.8 34.2 25.1 80 2.6 NW 6 11 3 6 1007.8 1007.5 0.0
21/10:00pm 29.2 34.5 25.2 79 2.8 NW 7 11 4 6 1007.5 1007.2 0.0
21/09:30pm 29.9 35.1 25.1 75 3.4 WNW 7 11 4 6 1007.3 1007.0 0.0
21/09:00pm 30.1 35.7 25.4 76 3.3 WNW 6 9 3 5 1007.0 1006.7 0.0
21/08:30pm 29.9 37.0 27.1 85 2.0 WNW 4 7 2 4 1006.5 1006.2 0.0
21/08:00pm 30.4 37.6 26.1 78 3.1 CALM 0 0 0 0 1006.4 1006.1 0.0
21/07:30pm 30.6 38.6 27.3 82 2.4 CALM 0 0 0 0 1006.1 1005.7 0.0
21/07:00pm 31.4 37.8 24.9 68 4.6 CALM 0 0 0 0 1005.4 1005.0 0.0
21/06:30pm 33.0 39.5 25.1 63 5.6 CALM 0 0 0 0 1004.6 1004.2 0.0
21/06:00pm 34.4 39.9 24.0 54 7.3 NNW 2 7 1 4 1004.3 1003.9 0.0
21/05:30pm 34.7 38.8 23.2 51 8.0 NW 7 13 4 7 1004.2 1003.8 0.0
21/05:00pm 34.3 38.5 23.1 52 7.8 NNW 6 11 3 6 1004.4 1004.0 0.0
21/04:30pm 34.8 39.9 24.0 53 7.6 NNW 4 9 2 5 1004.5 1004.1 0.0
21/04:00pm 34.3 37.3 21.9 48 8.5 WNW 9 17 5 9 1004.7 1004.3 0.0
21/03:30pm 34.2 37.5 22.6 50 8.0 WNW 9 13 5 7 1005.2 1004.8 0.0
21/03:00pm 34.1 39.0 23.7 54 7.3 WSW 4 15 2 8 1005.5 1005.1 0.0
21/02:30pm 33.4 38.0 23.8 57 6.7 WNW 6 9 3 5 1006.2 1005.8 0.0
21/02:00pm 33.4 37.6 23.2 55 7.1 NNW 6 11 3 6 1006.9 1006.6 0.0
21/01:30pm 32.7 36.8 23.0 56 6.7 N 6 9 3 5 1007.5 1007.2 0.0
21/01:00pm 32.3 36.9 22.5 56 6.7 N 2 11 1 6 1007.9 1007.6 0.0
21/12:30pm 31.6 36.1 22.9 60 6.0 WNW 4 7 2 4 1008.3 1008.0 0.0
21/12:00pm 31.3 36.2 23.7 64 5.3 NNW 4 9 2 5 1008.9 1008.6 0.0
21/11:30am 31.1 35.9 24.1 66 4.9 NW 6 9 3 5 1009.4 1009.1 0.0
21/11:00am 30.0 35.1 24.6 73 3.8 NNE 6 7 3 4 1009.8 1009.5 0.0
21/10:30am 28.9 34.2 24.9 79 2.8 NNE 6 9 3 5 1010.1 1009.8 0.0
21/10:00am 27.7 32.8 24.7 84 2.1 NE 6 9 3 5 1010.2 1009.9 0.0
21/09:30am 26.7 31.7 23.8 84 2.0 SSW 4 7 2 4 1010.3 1010.0 0.0
21/09:00am 26.3 31.4 24.1 88 1.5 ESE 4 9 2 5 1010.0 1009.7 37.8
21/08:30am 25.6 31.6 24.3 92 0.9 CALM 0 6 0 3 1009.5 1009.2 37.8
21/08:00am 24.4 28.9 23.7 96 0.5 NNE 6 9 3 5 1009.0 1008.7 37.8
21/07:30am 24.1 27.7 23.1 94 0.7 E 9 11 5 6 1008.7 1008.4 37.8
21/07:00am 24.2 27.7 22.9 92 0.9 SW 9 13 5 7 1008.5 1008.2 37.8
21/06:30am 24.0 26.1 22.4 91 1.1 W 15 22 8 12 1008.3 1008.0 37.8
21/06:00am 23.8 26.3 23.2 96 0.4 SE 15 28 8 15 1009.2 1008.9 37.0
21/05:30am 23.5 24.9 22.9 96 0.4 ENE 20 32 11 17 1009.0 1008.7 10.2
21/05:00am 26.4 28.5 24.1 87 1.6 E 20 30 11 16 1008.1 1007.8 0.2
21/04:30am 25.7 31.0 24.3 92 1.0 NE 4 7 2 4 1007.2 1006.9 0.2
21/04:00am 25.8 31.9 24.5 92 0.9 CALM 0 0 0 0 1006.8 1006.5 0.2
21/03:30am 26.0 31.8 24.0 89 1.4 CALM 0 0 0 0 1006.8 1006.5 0.2
21/03:00am 26.2 31.6 23.9 87 1.6 WNW 2 6 1 3 1006.7 1006.4 0.2
21/02:30am 26.3 31.8 24.1 88 1.5 NW 2 9 1 5 1006.7 1006.4 0.2
21/02:00am 26.3 32.1 24.0 87 1.6 CALM 0 0 0 0 1007.2 1006.9 0.2
21/01:30am 26.5 32.3 23.9 85 1.8 CALM 0 0 0 0 1007.6 1007.3 0.2
21/01:00am 26.7 32.5 23.9 84 1.9 CALM 0 0 0 0 1007.9 1007.6 0.2
21/12:30am 27.1 31.5 23.8 82 2.3 NW 7 11 4 6 1008.2 1007.9 0.2
21/12:00am 27.4 32.4 23.8 81 2.5 WNW 4 7 2 4 1008.5 1008.2 0.2
 
Date/Time
CST
Temp
°C
App
Temp
°C
Dew
Point
Rel
Hum
%
Delta-T
°C
Wind Press
QNH
hPa
Press
MSL
hPa
Rain
since 9 am
mm
Dir
 
Spd
km/h
Gust
km/h
Spd
kts
Gust
kts
20/11:30pm 27.6 33.0 23.8 80 2.6 NNW 2 6 1 3 1008.5 1008.2 0.2
20/11:00pm 28.2 32.7 23.6 76 3.2 NW 6 7 3 4 1008.4 1008.1 0.2
20/10:30pm 28.4 32.8 23.8 76 3.2 WSW 7 11 4 6 1008.3 1008.0 0.2
20/10:00pm 29.1 33.1 23.8 73 3.7 W 9 17 5 9 1008.3 1008.0 0.2
20/09:30pm 29.9 34.1 24.8 74 3.6 WNW 11 17 6 9 1007.9 1007.6 0.2
20/09:00pm 29.7 36.3 25.3 77 3.1 CALM 0 0 0 0 1007.2 1006.9 0.2
20/08:30pm 29.3 36.3 25.8 81 2.5 CALM 0 0 0 0 1006.9 1006.6 0.2
20/08:00pm 29.9 36.3 24.9 74 3.5 CALM 0 0 0 0 1006.3 1005.9 0.2
20/07:30pm 30.2 35.2 24.5 71 4.0 SSW 6 7 3 4 1006.4 1006.1 0.2
20/07:00pm 30.8 36.9 24.4 68 4.5 CALM 0 0 0 0 1005.6 1005.2 0.2
20/06:30pm 31.0 36.7 23.8 65 5.0 CALM 0 0 0 0 1004.7 1004.3 0.2
20/06:00pm 30.8 34.8 23.8 66 4.9 SE 9 13 5 7 1004.7 1004.3 0.2
20/05:30pm 30.8 33.3 23.1 63 5.3 SE 15 22 8 12 1004.7 1004.3 0.2
20/05:10pm 31.5 35.7 24.8 67 4.7 SSE 11 22 6 12 1004.2 - 0.2
20/05:00pm 34.9 39.0 23.0 50 8.3 WNW 6 7 3 4 1004.0 1003.6 0.2
20/04:30pm 36.6 40.7 23.0 45 9.5 NNW 6 9 3 5 1004.2 1003.8 0.2
20/04:00pm 36.5 40.6 23.2 46 9.3 NW 7 13 4 7 1004.4 1004.0 0.2
20/03:30pm 36.0 39.6 23.1 47 9.0 S 9 15 5 8 1004.9 1004.5 0.2
20/03:00pm 36.0 40.1 23.3 48 8.9 ESE 7 11 4 6 1005.4 1005.0 0.2
20/02:30pm 36.0 38.6 21.9 44 9.7 S 11 15 6 8 1006.0 1005.6 0.2
20/02:00pm 35.5 39.7 23.5 50 8.4 NE 7 15 4 8 1006.5 1006.2 0.2
20/01:30pm 34.7 38.4 23.2 51 8.0 S 9 13 5 7 1007.1 1006.8 0.2
20/01:00pm 34.2 38.8 24.7 57 6.7 E 9 17 5 9 1007.7 1007.4 0.2
20/12:30pm 34.1 39.0 24.3 56 6.9 NNW 6 11 3 6 1008.2 1007.9 0.2
20/12:00pm 33.1 38.2 24.6 61 6.0 ESE 6 9 3 5 1008.9 1008.6 0.2
20/11:30am 32.6 37.3 25.0 64 5.4 SE 9 13 5 7 1009.4 1009.1 0.2
20/11:00am 31.4 37.4 25.5 71 4.2 E 4 9 2 5 1010.0 1009.7 0.2
20/10:30am 31.0 36.6 25.4 72 4.0 ENE 6 9 3 5 1010.3 1010.0 0.2
20/10:00am 30.1 35.8 25.6 77 3.2 SSE 6 11 3 6 1010.5 1010.2 0.0
20/09:30am 28.7 34.2 25.3 82 2.4 WSW 6 9 3 5 1010.7 1010.4 0.0
20/09:00am 26.7 31.1 24.5 88 1.5 SSW 9 13 5 7 1010.7 1010.4 1.8
20/08:30am 25.4 29.7 23.6 90 1.2 W 7 11 4 6 1010.9 1010.6 1.8
20/08:00am 24.8 29.1 23.6 93 0.8 WNW 7 9 4 5 1010.5 1010.2 1.8

Other Formats:

Comma delimited format used in spreadsheet applications
http://www.bom.gov.au/fwo/IDD60801/IDD60801.94128.axf

JavaScript Object Notation format (JSON) in row-major order
http://www.bom.gov.au/fwo/IDD60801/IDD60801.94128.json